createdAt,value
2018-11-29T00:01:13.284Z,39.73
2018-11-29T00:03:42.874Z,35.87
2018-11-29T00:06:12.242Z,37.73
2018-11-29T00:08:41.594Z,39.47
2018-11-29T00:11:11.062Z,35.57
2018-11-29T00:13:40.586Z,35.40
2018-11-29T00:16:10.600Z,33.87
2018-11-29T00:18:40.019Z,37.00
2018-11-29T00:21:09.768Z,35.37
2018-11-29T00:23:39.154Z,35.97
2018-11-29T00:26:09.507Z,37.00
2018-11-29T00:28:38.953Z,30.83
2018-11-29T00:31:09.391Z,35.50
2018-11-29T00:33:38.777Z,31.77
2018-11-29T00:36:08.264Z,31.30
2018-11-29T00:38:37.633Z,32.23
2018-11-29T00:41:07.511Z,32.30
2018-11-29T00:43:36.890Z,33.80
2018-11-29T00:46:06.915Z,32.00
2018-11-29T00:50:00.807Z,33.47
2018-11-29T00:52:31.133Z,30.67
2018-11-29T00:55:00.727Z,34.17
2018-11-29T00:57:30.244Z,28.37
2018-11-29T00:59:59.628Z,30.83
2018-11-29T01:02:29.340Z,33.23
2018-11-29T01:04:59.265Z,36.77
2018-11-29T01:07:28.780Z,29.93
2018-11-29T01:09:58.245Z,35.23
2018-11-29T01:12:28.319Z,36.13
2018-11-29T01:14:57.930Z,35.20
2018-11-29T01:17:27.314Z,34.27
2018-11-29T01:19:56.698Z,30.63
2018-11-29T01:22:26.122Z,34.37
2018-11-29T01:24:55.623Z,36.80
2018-11-29T01:27:25.623Z,35.50
2018-11-29T01:29:55.829Z,33.20
2018-11-29T01:32:25.212Z,34.73
2018-11-29T01:34:54.616Z,37.03
2018-11-29T01:37:24.585Z,31.13
2018-11-29T01:39:54.069Z,34.03
2018-11-29T01:42:23.985Z,39.60
2018-11-29T01:44:53.413Z,34.77
2018-11-29T01:47:23.432Z,37.97
2018-11-29T01:49:52.876Z,36.80
2018-11-29T01:52:22.279Z,34.17
2018-11-29T01:54:51.886Z,35.33
2018-11-29T01:57:21.462Z,36.13
2018-11-29T01:59:50.896Z,37.60
2018-11-29T02:02:21.022Z,34.23
2018-11-29T02:04:50.628Z,29.03
2018-11-29T02:07:20.574Z,34.10
2018-11-29T02:09:50.028Z,38.33
2018-11-29T02:12:19.405Z,36.30
2018-11-29T02:14:48.953Z,39.33
2018-11-29T02:19:50.931Z,31.37
2018-11-29T02:22:20.477Z,34.93
2018-11-29T02:24:50.030Z,32.03
2018-11-29T02:27:19.513Z,33.10
2018-11-29T02:29:49.057Z,32.53
2018-11-29T02:32:18.462Z,34.77
2018-11-29T02:34:47.877Z,33.03
2018-11-29T02:37:17.312Z,33.47
2018-11-29T02:39:46.673Z,32.30
2018-11-29T02:42:16.083Z,31.33
2018-11-29T02:44:46.775Z,35.60
2018-11-29T02:47:16.321Z,35.73
2018-11-29T02:49:45.921Z,32.83
2018-11-29T02:52:15.259Z,32.23
2018-11-29T02:54:44.661Z,33.80
2018-11-29T02:57:14.011Z,29.60
2018-11-29T02:59:43.373Z,36.87
2018-11-29T03:02:12.745Z,34.47
2018-11-29T03:04:42.088Z,33.70
2018-11-29T03:07:11.583Z,32.33
2018-11-29T03:09:40.940Z,32.23
2018-11-29T03:12:10.673Z,28.80
2018-11-29T03:14:40.172Z,32.07
2018-11-29T03:17:09.715Z,29.80
2018-11-29T03:19:39.038Z,30.97
2018-11-29T03:22:09.663Z,33.27
2018-11-29T03:24:39.072Z,31.37
2018-11-29T03:27:09.200Z,32.40
2018-11-29T03:29:38.714Z,30.40
2018-11-29T03:32:08.135Z,31.27
2018-11-29T03:34:38.372Z,29.80
2018-11-29T03:37:08.268Z,29.13
2018-11-29T03:39:38.289Z,30.47
2018-11-29T03:42:08.464Z,31.73
2018-11-29T03:44:38.746Z,30.70
2018-11-29T03:47:09.326Z,31.63
2018-11-29T03:49:38.863Z,35.10
2018-11-29T03:52:08.475Z,31.30
2018-11-29T03:54:37.871Z,31.03
2018-11-29T03:57:07.699Z,28.60
2018-11-29T03:59:37.027Z,29.70
2018-11-29T04:02:07.041Z,28.23
2018-11-29T04:04:36.459Z,28.63
2018-11-29T04:07:06.919Z,29.67
2018-11-29T04:09:36.288Z,25.97
2018-11-29T04:12:05.770Z,29.60
2018-11-29T04:14:35.077Z,27.30
2018-11-29T04:17:04.605Z,29.93
2018-11-29T04:19:34.028Z,29.40
2018-11-29T04:22:03.367Z,31.70
2018-11-29T04:24:32.757Z,28.63
2018-11-29T04:27:02.198Z,31.20
2018-11-29T04:29:31.808Z,31.20
2018-11-29T04:32:01.429Z,31.27
2018-11-29T04:34:30.976Z,31.37
2018-11-29T04:37:05.006Z,31.67
2018-11-29T04:39:34.358Z,29.30
2018-11-29T04:42:03.850Z,38.47
2018-11-29T04:44:33.343Z,29.80
2018-11-29T04:47:02.852Z,37.53
2018-11-29T04:49:32.380Z,33.93
2018-11-29T04:52:01.910Z,34.03
2018-11-29T04:54:31.530Z,37.20
2018-11-29T04:57:01.120Z,39.63
2018-11-29T04:59:30.702Z,37.30
2018-11-29T05:02:00.071Z,37.13
2018-11-29T05:04:29.505Z,41.43
2018-11-29T05:06:59.034Z,38.73
2018-11-29T05:09:28.987Z,40.13
2018-11-29T05:11:58.401Z,35.20
2018-11-29T05:14:27.784Z,37.30
2018-11-29T05:16:57.293Z,35.07
2018-11-29T05:19:26.671Z,29.73
2018-11-29T05:21:56.053Z,34.53
2018-11-29T05:24:25.387Z,37.70
2018-11-29T05:26:54.873Z,31.73
2018-11-29T05:29:24.260Z,33.37
2018-11-29T05:31:53.711Z,36.50
2018-11-29T05:34:23.521Z,37.67
2018-11-29T05:36:52.892Z,32.77
2018-11-29T05:39:22.300Z,30.93
2018-11-29T05:41:52.123Z,35.37
2018-11-29T05:44:21.767Z,32.43
2018-11-29T05:46:51.631Z,37.77
2018-11-29T05:49:21.111Z,35.27
2018-11-29T05:51:50.538Z,38.80
2018-11-29T05:54:20.010Z,36.20
2018-11-29T05:56:49.794Z,37.37
2018-11-29T05:59:19.272Z,38.80
2018-11-29T06:01:49.760Z,36.10
2018-11-29T06:04:19.347Z,43.50
2018-11-29T06:06:49.036Z,35.90
2018-11-29T06:09:18.664Z,39.50
2018-11-29T06:11:48.150Z,36.87
2018-11-29T06:14:18.748Z,40.83
2018-11-29T06:16:48.182Z,37.77
2018-11-29T06:19:27.322Z,40.00
2018-11-29T06:21:57.027Z,40.53
2018-11-29T06:24:26.545Z,40.77
2018-11-29T06:26:56.142Z,36.63
2018-11-29T06:29:25.543Z,35.07
2018-11-29T06:31:55.027Z,40.27
2018-11-29T06:34:24.557Z,39.20
2018-11-29T06:36:53.955Z,39.37
2018-11-29T06:39:30.989Z,38.30
2018-11-29T06:42:00.517Z,47.07
2018-11-29T06:44:29.925Z,38.77
2018-11-29T06:47:00.017Z,40.93
2018-11-29T06:49:30.995Z,38.47
2018-11-29T06:52:00.969Z,34.03
2018-11-29T06:54:30.673Z,36.47
2018-11-29T06:57:00.579Z,35.93
2018-11-29T06:59:30.103Z,38.67
2018-11-29T07:01:59.850Z,40.93
2018-11-29T07:04:29.272Z,39.67
2018-11-29T07:06:58.708Z,41.63
2018-11-29T07:09:28.311Z,39.57
2018-11-29T07:12:00.674Z,40.67
2018-11-29T07:14:30.379Z,33.80
2018-11-29T07:16:59.862Z,32.57
2018-11-29T07:19:29.446Z,33.53
2018-11-29T07:21:59.776Z,32.23
2018-11-29T07:24:29.270Z,29.27
2018-11-29T07:26:58.859Z,31.43
2018-11-29T07:29:28.454Z,26.83
2018-11-29T07:31:57.864Z,26.47
2018-11-29T07:34:28.451Z,27.77
2018-11-29T07:36:57.906Z,24.43
2018-11-29T07:39:27.367Z,22.90
2018-11-29T07:41:56.810Z,24.27
2018-11-29T07:44:26.222Z,21.97
2018-11-29T07:46:55.598Z,22.20
2018-11-29T07:49:24.971Z,21.43
2018-11-29T07:51:54.513Z,16.97
2018-11-29T07:54:23.983Z,18.33
2018-11-29T07:56:53.380Z,20.83
2018-11-29T07:59:22.752Z,19.33
2018-11-29T08:01:52.643Z,19.67
2018-11-29T08:04:22.009Z,22.07
2018-11-29T08:06:52.351Z,22.77
2018-11-29T08:09:22.755Z,27.67
2018-11-29T08:11:52.784Z,24.57
2018-11-29T08:14:22.665Z,24.70
2018-11-29T08:16:52.032Z,27.40
2018-11-29T08:19:21.735Z,25.37
2018-11-29T08:21:51.287Z,22.43
2018-11-29T08:24:20.710Z,21.43
2018-11-29T08:26:50.396Z,25.53
2018-11-29T08:29:19.930Z,22.57
2018-11-29T08:31:49.617Z,17.77
2018-11-29T08:34:19.060Z,12.50
2018-11-29T08:36:48.476Z,15.30
2018-11-29T08:39:17.828Z,13.53
2018-11-29T08:41:47.307Z,11.17
2018-11-29T08:44:16.667Z,10.80
2018-11-29T08:46:46.134Z,10.37
2018-11-29T08:49:15.594Z,12.57
2018-11-29T08:51:44.964Z,11.63
2018-11-29T08:54:14.310Z,9.93
2018-11-29T08:56:43.662Z,9.93
2018-11-29T08:59:13.020Z,10.60
2018-11-29T09:01:42.436Z,11.77
2018-11-29T09:04:12.116Z,10.43
2018-11-29T09:06:41.667Z,10.53
2018-11-29T09:09:12.084Z,10.97
2018-11-29T09:11:41.470Z,11.17
2018-11-29T09:14:12.047Z,13.30
2018-11-29T09:16:41.526Z,9.57
2018-11-29T09:19:11.789Z,10.73
2018-11-29T09:21:41.330Z,11.57
2018-11-29T09:24:10.891Z,8.07
2018-11-29T09:26:40.429Z,11.10
2018-11-29T09:29:10.530Z,8.47
2018-11-29T09:31:41.300Z,11.07
2018-11-29T09:34:11.209Z,9.27
2018-11-29T09:36:49.061Z,10.30
2018-11-29T09:39:20.088Z,10.97
2018-11-29T09:41:50.208Z,9.63
2018-11-29T09:44:19.842Z,8.43
2018-11-29T09:46:49.726Z,9.27
2018-11-29T09:49:19.598Z,10.93
2018-11-29T09:51:49.120Z,9.33
2018-11-29T09:54:25.801Z,10.80
2018-11-29T09:57:02.320Z,10.67
2018-11-29T09:59:32.388Z,9.83
2018-11-29T10:02:03.168Z,9.03
2018-11-29T10:04:32.608Z,8.90
2018-11-29T10:07:02.152Z,9.87
2018-11-29T10:09:32.077Z,10.43
2018-11-29T10:12:02.209Z,9.33
2018-11-29T10:14:31.861Z,9.50
2018-11-29T10:17:01.522Z,9.57
2018-11-29T10:19:38.337Z,10.37
2018-11-29T10:22:08.185Z,11.63
2018-11-29T10:24:45.469Z,8.70
2018-11-29T10:27:15.225Z,8.43
2018-11-29T10:29:45.499Z,10.20
2018-11-29T10:32:16.641Z,8.93
2018-11-29T10:34:52.561Z,9.30
2018-11-29T10:37:23.721Z,11.80
2018-11-29T10:39:53.989Z,8.47
2018-11-29T10:42:23.719Z,7.70
2018-11-29T10:44:54.151Z,7.17
2018-11-29T10:47:23.629Z,7.93
2018-11-29T10:49:53.683Z,8.43
2018-11-29T10:52:24.105Z,8.77
2018-11-29T10:54:53.936Z,7.77
2018-11-29T10:57:26.666Z,15.73
2018-11-29T10:59:58.487Z,16.10
2018-11-29T11:02:30.638Z,15.97
2018-11-29T11:05:00.272Z,16.07
2018-11-29T11:07:29.919Z,15.80
2018-11-29T11:09:59.326Z,16.53
2018-11-29T11:12:29.839Z,14.67
2018-11-29T11:15:00.677Z,12.17
2018-11-29T11:17:37.739Z,15.13
2018-11-29T11:20:07.363Z,15.00
2018-11-29T11:22:36.721Z,18.53
2018-11-29T11:25:09.517Z,14.80
2018-11-29T11:27:38.991Z,13.77
2018-11-29T11:30:17.368Z,15.30
2018-11-29T11:32:49.701Z,15.33
2018-11-29T11:35:19.391Z,16.67
2018-11-29T11:37:56.155Z,15.70
2018-11-29T11:40:28.408Z,18.17
2018-11-29T11:42:57.843Z,16.40
2018-11-29T11:45:33.003Z,11.50
2018-11-29T11:48:04.491Z,15.30
2018-11-29T11:50:33.965Z,12.50
2018-11-29T11:53:03.350Z,14.47
2018-11-29T11:55:35.143Z,13.70
2018-11-29T11:58:04.786Z,13.33
2018-11-29T12:00:34.232Z,14.73
2018-11-29T12:03:09.293Z,14.10
2018-11-29T12:05:39.336Z,13.67
2018-11-29T12:08:09.998Z,14.77
2018-11-29T12:10:42.304Z,14.10
2018-11-29T12:13:11.912Z,13.43
2018-11-29T12:15:41.555Z,15.97
2018-11-29T12:18:12.719Z,13.97
2018-11-29T12:20:42.532Z,13.70
2018-11-29T12:23:12.239Z,12.37
2018-11-29T12:25:42.117Z,12.80
2018-11-29T12:28:13.186Z,15.00
2018-11-29T12:30:49.216Z,14.47
2018-11-29T12:33:18.559Z,14.20
2018-11-29T12:35:48.117Z,16.43
2018-11-29T12:38:17.547Z,12.60
2018-11-29T12:40:46.969Z,16.60
2018-11-29T12:43:17.318Z,13.73
2018-11-29T12:45:46.801Z,13.80
2018-11-29T12:48:16.554Z,16.27
2018-11-29T12:50:45.948Z,13.57
2018-11-29T12:53:15.991Z,15.27
2018-11-29T12:55:46.288Z,14.10
2018-11-29T12:58:15.633Z,17.23
2018-11-29T13:00:45.366Z,14.43
2018-11-29T13:03:15.018Z,15.67
2018-11-29T13:05:44.484Z,16.23
2018-11-29T13:08:14.198Z,14.03
2018-11-29T13:10:43.608Z,14.60
2018-11-29T13:13:13.646Z,14.70
2018-11-29T13:15:43.100Z,14.83
2018-11-29T13:18:12.741Z,17.83
2018-11-29T13:20:43.276Z,16.10
2018-11-29T13:23:12.919Z,15.07
2018-11-29T13:25:42.605Z,13.97
2018-11-29T13:28:13.520Z,15.83
2018-11-29T13:30:43.560Z,18.83
2018-11-29T13:33:12.962Z,18.00
2018-11-29T13:35:42.778Z,15.63
2018-11-29T13:38:14.987Z,16.83
2018-11-29T13:40:47.510Z,14.87
2018-11-29T13:43:17.581Z,15.00
2018-11-29T13:45:47.296Z,18.10
2018-11-29T13:48:16.727Z,16.30
2018-11-29T13:50:46.289Z,20.77
2018-11-29T13:53:15.707Z,21.23
2018-11-29T13:55:45.219Z,17.50
2018-11-29T13:58:14.547Z,19.17
2018-11-29T14:00:45.076Z,17.30
2018-11-29T14:03:16.120Z,17.90
2018-11-29T14:05:46.490Z,16.53
2018-11-29T14:08:15.949Z,15.63
2018-11-29T14:10:45.451Z,18.07
2018-11-29T14:13:19.009Z,21.63
2018-11-29T14:15:48.515Z,18.77
2018-11-29T14:18:17.991Z,21.13
2018-11-29T14:20:47.480Z,21.27
2018-11-29T14:23:17.613Z,20.37
2018-11-29T14:25:46.981Z,21.23
2018-11-29T14:28:16.341Z,18.73
2018-11-29T14:30:45.706Z,21.67
2018-11-29T14:33:15.136Z,19.10
2018-11-29T14:35:45.370Z,17.90
2018-11-29T14:38:14.833Z,18.67
2018-11-29T14:40:44.333Z,18.73
2018-11-29T14:43:13.735Z,20.17
2018-11-29T14:45:43.677Z,16.97
2018-11-29T14:48:13.053Z,19.17
2018-11-29T14:50:45.588Z,19.17
2018-11-29T14:53:14.946Z,18.73
2018-11-29T14:55:44.464Z,20.17
2018-11-29T14:58:19.605Z,18.07
2018-11-29T15:00:44.954Z,20.40
2018-11-29T15:03:18.494Z,24.03
2018-11-29T15:05:48.163Z,21.03
2018-11-29T15:08:17.507Z,20.47
2018-11-29T15:10:46.880Z,23.97
2018-11-29T15:13:16.261Z,21.13
2018-11-29T15:15:45.775Z,21.13
2018-11-29T15:18:15.275Z,20.80
2018-11-29T15:20:49.460Z,23.33
2018-11-29T15:23:20.652Z,23.07
2018-11-29T15:25:50.222Z,20.77
2018-11-29T15:28:19.653Z,25.57
2018-11-29T15:30:49.191Z,23.17
2018-11-29T15:33:18.585Z,23.30
2018-11-29T15:35:48.125Z,26.60
2018-11-29T15:38:17.618Z,22.67
2018-11-29T15:40:46.979Z,22.27
2018-11-29T15:43:16.455Z,23.93
2018-11-29T15:45:45.921Z,23.03
2018-11-29T15:48:15.362Z,26.33
2018-11-29T15:50:45.109Z,24.67
2018-11-29T15:53:14.580Z,23.83
2018-11-29T15:55:44.048Z,23.67
2018-11-29T15:58:13.411Z,24.63
2018-11-29T16:00:43.614Z,23.30
2018-11-29T16:03:13.890Z,25.80
2018-11-29T16:05:43.597Z,26.47
2018-11-29T16:08:13.659Z,29.20
2018-11-29T16:10:43.220Z,27.00
2018-11-29T16:13:13.573Z,27.10
2018-11-29T16:15:43.179Z,26.73
2018-11-29T16:18:12.700Z,24.43
2018-11-29T16:20:42.571Z,27.10
2018-11-29T16:23:12.064Z,26.17
2018-11-29T16:25:41.595Z,24.60
2018-11-29T16:28:11.841Z,28.90
2018-11-29T16:30:56.394Z,27.00
2018-11-29T16:33:32.188Z,34.27
2018-11-29T16:36:02.328Z,28.67
2018-11-29T16:38:32.087Z,25.80
2018-11-29T16:41:02.315Z,27.13
2018-11-29T16:43:32.197Z,26.10
2018-11-29T16:46:01.795Z,25.10
2018-11-29T16:48:31.855Z,29.20
2018-11-29T16:51:01.735Z,27.47
2018-11-29T16:53:31.541Z,28.30
2018-11-29T16:56:01.114Z,29.70
2018-11-29T16:58:31.815Z,30.83
2018-11-29T17:01:02.831Z,32.40
2018-11-29T17:03:38.038Z,30.30
2018-11-29T17:06:08.152Z,31.47
2018-11-29T17:08:37.619Z,32.37
2018-11-29T17:11:07.135Z,30.83
2018-11-29T17:13:37.359Z,30.70
2018-11-29T17:16:07.403Z,28.43
2018-11-29T17:18:37.348Z,25.70
2018-11-29T17:21:08.528Z,34.20
2018-11-29T17:23:38.037Z,33.13
2018-11-29T17:26:07.539Z,31.57
2018-11-29T17:28:37.306Z,32.10
2018-11-29T17:31:14.648Z,27.60
2018-11-29T17:33:44.230Z,30.63
2018-11-29T17:36:14.461Z,31.63
2018-11-29T17:38:44.254Z,32.60
2018-11-29T17:41:16.884Z,35.40
2018-11-29T17:43:48.610Z,29.20
2018-11-29T17:46:19.632Z,40.03
2018-11-29T17:48:49.625Z,33.57
2018-11-29T17:51:20.500Z,36.13
2018-11-29T17:53:52.351Z,37.40
2018-11-29T17:56:24.266Z,37.73
2018-11-29T17:58:55.011Z,33.80
2018-11-29T18:01:25.879Z,32.97
2018-11-29T18:03:58.146Z,34.00
2018-11-29T18:06:29.533Z,39.63
2018-11-29T18:08:59.118Z,33.30
2018-11-29T18:11:28.662Z,32.43
2018-11-29T18:14:01.280Z,31.93
2018-11-29T18:16:34.589Z,34.93
2018-11-29T18:19:05.485Z,36.83
2018-11-29T18:21:36.070Z,36.13
2018-11-29T18:24:06.188Z,37.13
2018-11-29T18:26:39.539Z,36.97
2018-11-29T18:29:11.655Z,33.97
2018-11-29T18:31:41.735Z,36.13
2018-11-29T18:34:12.353Z,34.83
2018-11-29T18:36:42.027Z,37.50
2018-11-29T18:39:12.461Z,35.27
2018-11-29T18:41:46.087Z,36.40
2018-11-29T18:44:15.465Z,38.27
2018-11-29T18:46:44.959Z,36.67
2018-11-29T18:49:15.295Z,34.03
2018-11-29T18:51:47.497Z,33.33
2018-11-29T18:54:19.426Z,36.10
2018-11-29T18:56:49.032Z,40.33
2018-11-29T18:59:18.725Z,37.00
2018-11-29T19:01:50.955Z,33.43
2018-11-29T19:04:21.664Z,38.50
2018-11-29T19:06:52.951Z,36.17
2018-11-29T19:09:23.912Z,35.73
2018-11-29T19:11:59.252Z,34.00
2018-11-29T19:14:28.845Z,34.97
2018-11-29T19:16:59.423Z,34.67
2018-11-29T19:19:28.935Z,34.73
2018-11-29T19:21:59.372Z,34.47
2018-11-29T19:24:28.964Z,33.80
2018-11-29T19:27:00.792Z,34.70
2018-11-29T19:29:33.153Z,34.47
2018-11-29T19:32:04.076Z,34.67
2018-11-29T19:34:33.860Z,38.40
2018-11-29T19:37:03.564Z,36.43
2018-11-29T19:39:33.238Z,36.03
2018-11-29T19:42:03.235Z,34.93
2018-11-29T19:44:33.431Z,34.07
2018-11-29T19:47:03.889Z,37.53
2018-11-29T19:49:33.579Z,37.00
2018-11-29T19:52:03.288Z,34.83
2018-11-29T19:54:32.897Z,32.00
2018-11-29T19:57:02.701Z,34.20
2018-11-29T19:59:32.628Z,36.43
2018-11-29T20:02:02.532Z,34.33
2018-11-29T20:04:32.115Z,38.97
2018-11-29T20:07:01.847Z,32.13
2018-11-29T20:09:31.929Z,36.47
2018-11-29T20:12:02.186Z,33.73
2018-11-29T20:14:32.018Z,34.50
2018-11-29T20:17:02.279Z,37.57
2018-11-29T20:19:32.663Z,32.47
2018-11-29T20:22:02.284Z,32.50
2018-11-29T20:24:32.828Z,32.03
2018-11-29T20:27:02.445Z,33.77
2018-11-29T20:29:33.156Z,33.23
2018-11-29T20:32:02.964Z,34.87
2018-11-29T20:34:33.742Z,37.17
2018-11-29T20:37:08.455Z,36.23
2018-11-29T20:39:38.130Z,33.60
2018-11-29T20:42:07.708Z,33.23
2018-11-29T20:44:37.371Z,34.33
2018-11-29T20:47:07.796Z,36.10
2018-11-29T20:49:37.572Z,33.63
2018-11-29T20:52:07.066Z,32.40
2018-11-29T20:54:37.268Z,33.73
2018-11-29T20:57:07.365Z,35.37
2018-11-29T20:59:36.985Z,35.60
2018-11-29T21:02:07.149Z,31.90
2018-11-29T21:04:36.793Z,31.37
2018-11-29T21:07:06.854Z,35.70
2018-11-29T21:09:36.577Z,31.97
2018-11-29T21:12:06.168Z,33.67
2018-11-29T21:14:36.979Z,39.10
2018-11-29T21:17:06.813Z,34.60
2018-11-29T21:19:36.717Z,32.97
2018-11-29T21:22:06.572Z,36.43
2018-11-29T21:24:35.951Z,31.47
2018-11-29T21:27:05.657Z,34.53
2018-11-29T21:29:36.258Z,32.23
2018-11-29T21:32:05.884Z,33.80
2018-11-29T21:34:35.297Z,35.07
2018-11-29T21:37:05.254Z,32.57
2018-11-29T21:39:34.665Z,34.43
2018-11-29T21:42:04.087Z,30.63
2018-11-29T21:44:33.596Z,31.07
2018-11-29T21:47:03.171Z,33.57
2018-11-29T21:49:33.187Z,30.90
2018-11-29T21:52:02.839Z,33.53
2018-11-29T21:54:32.469Z,33.70
2018-11-29T21:57:03.165Z,33.70
2018-11-29T21:59:35.508Z,33.97
2018-11-29T22:02:02.731Z,32.90
2018-11-29T22:04:33.573Z,32.87
2018-11-29T22:07:03.164Z,31.97
2018-11-29T22:09:32.694Z,34.47
2018-11-29T22:12:02.440Z,33.60
2018-11-29T22:14:32.863Z,32.97
2018-11-29T22:17:02.496Z,37.10
2018-11-29T22:19:32.069Z,31.33
2018-11-29T22:22:01.454Z,32.80
2018-11-29T22:24:30.842Z,33.07
2018-11-29T22:27:00.244Z,32.13
2018-11-29T22:29:29.620Z,30.87
2018-11-29T22:31:59.070Z,34.20
2018-11-29T22:34:28.704Z,33.57
2018-11-29T22:36:58.130Z,32.70
2018-11-29T22:39:27.614Z,33.20
2018-11-29T22:41:57.172Z,33.07
2018-11-29T22:44:26.513Z,32.97
2018-11-29T22:46:56.268Z,33.60
2018-11-29T22:49:25.633Z,32.70
2018-11-29T22:51:55.033Z,38.73
2018-11-29T22:54:24.405Z,33.57
2018-11-29T22:56:54.181Z,31.43
2018-11-29T22:59:23.654Z,33.57
2018-11-29T23:01:53.179Z,34.63
2018-11-29T23:04:22.660Z,32.57
2018-11-29T23:06:52.231Z,36.57
2018-11-29T23:09:21.914Z,32.20
2018-11-29T23:11:51.391Z,36.87
2018-11-29T23:14:20.842Z,31.93
2018-11-29T23:16:50.732Z,31.03
2018-11-29T23:19:20.332Z,38.03
2018-11-29T23:21:50.142Z,36.63
2018-11-29T23:24:19.551Z,33.00
2018-11-29T23:26:48.945Z,35.83
2018-11-29T23:29:18.474Z,33.37
2018-11-29T23:31:48.518Z,35.93
2018-11-29T23:34:17.938Z,34.87
2018-11-29T23:36:47.994Z,38.17
2018-11-29T23:39:17.465Z,36.07
2018-11-29T23:41:46.833Z,33.57
2018-11-29T23:44:16.398Z,34.07
2018-11-29T23:46:45.833Z,34.03
2018-11-29T23:49:15.211Z,36.30
2018-11-29T23:51:44.615Z,36.87
2018-11-29T23:54:14.339Z,39.20
2018-11-29T23:56:43.725Z,35.17
2018-11-29T23:59:13.295Z,34.07
